Time;durP1;ratioP1;P1;durP2;ratioP2;P2;SDS_P1;SDS_P2;PMS_P1;PMS_P2;Temp;Humidity;BMP_temperature;BMP_pressure;BME280_temperature;BME280_humidity;BME280_pressure;Samples;Min_cycle;Max_cycle;Signal;HPM_P1;HPM_P2
2023/02/26 00:01:11;;;;;;;6.78;1.67;;;;;;;12.85;57.29;102627.31;5016216;28;20107;-75
2023/02/26 00:03:37;;;;;;;3.97;1.10;;;;;;;12.70;58.70;102631.75;5015669;28;20420;-79
2023/02/26 00:06:02;;;;;;;9.45;2.30;;;;;;;12.80;57.60;102619.09;5015855;28;20022;-72
2023/02/26 00:08:30;;;;;;;10.07;2.05;;;;;;;12.89;56.70;102622.88;5015673;28;20036;-74
2023/02/26 00:10:56;;;;;;;8.30;2.53;;;;;;;12.83;57.36;102619.34;5015744;28;20157;-72
2023/02/26 00:13:22;;;;;;;6.78;1.75;;;;;;;12.55;61.11;102623.59;5015837;28;20113;-72
2023/02/26 00:15:55;;;;;;;8.43;1.67;;;;;;;12.56;60.33;102624.41;5015731;28;20022;-79
2023/02/26 00:18:21;;;;;;;6.90;1.63;;;;;;;12.96;58.89;102623.38;5015604;28;20487;-74
2023/02/26 00:20:47;;;;;;;2.95;1.25;;;;;;;13.03;58.19;102635.69;5015401;28;20018;-71
2023/02/26 00:23:17;;;;;;;5.97;1.92;;;;;;;12.68;59.75;102650.41;5015303;28;20075;-85
2023/02/26 00:25:43;;;;;;;6.93;1.77;;;;;;;12.82;60.26;102639.66;5015879;28;20041;-85
2023/02/26 00:28:09;;;;;;;8.43;1.77;;;;;;;12.92;60.86;102645.09;5015893;28;20018;-87
2023/02/26 00:30:35;;;;;;;10.57;2.42;;;;;;;12.85;63.24;102657.50;5015912;28;20026;-70
2023/02/26 00:33:02;;;;;;;15.13;2.55;;;;;;;12.79;65.05;102656.69;5015602;28;20480;-87
2023/02/26 00:35:28;;;;;;;13.13;2.70;;;;;;;12.74;64.03;102649.28;5015541;28;20022;-78
2023/02/26 00:38:05;;;;;;;10.88;1.95;;;;;;;12.59;65.19;102652.09;5015697;28;20091;-79
2023/02/26 00:40:46;;;;;;;8.45;2.40;;;;;;;12.35;67.00;102651.91;5015375;28;20105;-76
2023/02/26 00:43:17;;;;;;;7.88;2.08;;;;;;;12.62;64.02;102642.47;5015432;28;20048;-86
2023/02/26 00:46:08;;;;;;;10.85;2.08;;;;;;;12.74;63.01;102637.50;5015416;28;20551;-73
2023/02/26 00:48:37;;;;;;;7.10;1.67;;;;;;;12.41;64.18;102648.06;5004142;28;20038;-85
2023/02/26 00:51:26;;;;;;;8.68;2.03;;;;;;;12.91;62.31;102639.88;5013914;28;20042;-81
2023/02/26 00:54:08;;;;;;;10.73;1.83;;;;;;;12.88;64.87;102635.78;5014224;28;20057;-78
2023/02/26 00:56:34;;;;;;;7.40;1.45;;;;;;;12.47;70.64;102646.94;5001173;28;20033;-70
2023/02/26 00:59:00;;;;;;;6.80;1.30;;;;;;;12.78;70.12;102635.84;5015017;28;20026;-80
2023/02/26 01:01:25;;;;;;;8.30;2.00;;;;;;;12.43;78.85;102643.09;5014923;28;20033;-73
2023/02/26 01:03:51;;;;;;;9.35;2.35;;;;;;;12.60;76.74;102644.69;5014989;28;20484;-69
2023/02/26 01:06:20;;;;;;;10.68;2.17;;;;;;;12.81;73.06;102648.16;5014939;28;20037;-86
2023/02/26 01:09:09;;;;;;;9.18;2.05;;;;;;;12.69;74.33;102649.28;5015253;28;20369;-68
2023/02/26 01:11:35;;;;;;;8.85;2.03;;;;;;;12.49;74.61;102646.66;5014820;28;20053;-86
2023/02/26 01:14:03;;;;;;;9.75;2.22;;;;;;;12.90;71.38;102647.28;5014757;28;20435;-76
2023/02/26 01:16:37;;;;;;;7.45;1.55;;;;;;;12.64;72.02;102648.53;5014701;28;20045;-85
2023/02/26 01:19:17;;;;;;;4.63;1.42;;;;;;;12.53;68.93;102641.41;5015008;28;20462;-87
2023/02/26 01:22:06;;;;;;;12.63;2.15;;;;;;;12.48;63.60;102645.00;5014849;28;20053;-85
2023/02/26 01:24:35;;;;;;;13.60;2.00;;;;;;;12.13;67.01;102643.19;4998469;28;20128;-70
2023/02/26 01:27:01;;;;;;;6.63;1.88;;;;;;;12.35;67.97;102645.59;5014207;28;20065;-78
2023/02/26 01:29:26;;;;;;;7.03;1.63;;;;;;;12.31;71.35;102645.31;5014526;28;20229;-78
2023/02/26 01:32:07;;;;;;;7.03;2.13;;;;;;;12.70;65.01;102642.72;5014574;28;20022;-78
2023/02/26 01:34:43;;;;;;;9.30;1.70;;;;;;;12.47;64.96;102646.13;5014378;28;20030;-70
2023/02/26 01:37:36;;;;;;;10.23;1.95;;;;;;;12.53;65.05;102644.97;5014075;28;20030;-73
2023/02/26 01:40:19;;;;;;;6.63;2.17;;;;;;;12.29;65.21;102639.31;4998297;28;20034;-79
2023/02/26 01:42:49;;;;;;;7.00;1.60;;;;;;;12.26;73.94;102648.09;5013866;28;20037;-79
2023/02/26 01:45:31;;;;;;;8.43;1.60;;;;;;;12.56;71.71;102644.44;5013977;28;20564;-81
2023/02/26 01:48:04;;;;;;;12.45;3.88;;;;;;;12.47;75.08;102644.19;5013993;28;20030;-72
2023/02/26 01:50:33;;;;;;;9.13;1.70;;;;;;;12.45;75.39;102645.56;5013637;28;20050;-77
2023/02/26 01:53:17;;;;;;;5.00;1.83;;;;;;;12.24;77.25;102658.50;5014029;28;20117;-70
2023/02/26 01:55:46;;;;;;;8.02;2.45;;;;;;;12.69;73.95;102654.78;5013972;28;20030;-73
2023/02/26 01:58:12;;;;;;;4.20;1.52;;;;;;;12.70;73.57;102653.72;5014021;28;20484;-83
2023/02/26 02:00:37;;;;;;;5.90;1.75;;;;;;;12.72;75.04;102664.38;5014132;28;20033;-86
2023/02/26 02:03:03;;;;;;;5.75;1.48;;;;;;;12.72;74.05;102667.13;5013162;28;20030;-86
2023/02/26 02:05:34;;;;;;;7.93;2.10;;;;;;;12.62;74.03;102665.25;5014061;28;20044;-76
2023/02/26 02:08:00;;;;;;;5.75;1.60;;;;;;;12.19;78.00;102673.03;5013821;28;20376;-74
2023/02/26 02:10:27;;;;;;;8.43;1.77;;;;;;;12.25;82.34;102670.31;5013472;28;20029;-71
2023/02/26 02:13:01;;;;;;;8.05;1.88;;;;;;;12.58;76.08;102666.91;5013291;28;20108;-77
2023/02/26 02:16:10;;;;;;;5.68;1.30;;;;;;;12.75;68.54;102667.38;5012998;28;20044;-76
2023/02/26 02:18:59;;;;;;;8.82;1.85;;;;;;;12.59;73.31;102665.81;5003508;28;20518;-70
2023/02/26 02:21:43;;;;;;;5.00;1.67;;;;;;;12.60;74.21;102675.66;5013332;28;20476;-79
2023/02/26 02:24:29;;;;;;;5.20;2.38;;;;;;;12.48;76.57;102677.91;5013173;28;20040;-71
2023/02/26 02:27:02;;;;;;;9.07;1.90;;;;;;;12.52;75.81;102679.00;5013268;28;20026;-70
2023/02/26 02:30:08;;;;;;;6.68;1.77;;;;;;;12.78;72.97;102688.78;5013196;28;20022;-73
2023/02/26 02:32:45;;;;;;;12.55;2.55;;;;;;;12.86;72.61;102686.56;5013315;28;20083;-70
2023/02/26 02:35:22;;;;;;;9.90;1.85;;;;;;;12.45;73.48;102686.69;5013071;28;20025;-76
2023/02/26 02:38:07;;;;;;;4.97;1.70;;;;;;;12.64;72.38;102687.72;4995537;28;20484;-76
2023/02/26 02:40:38;;;;;;;4.82;1.50;;;;;;;12.59;71.52;102695.16;4995426;28;20442;-77
2023/02/26 02:43:09;;;;;;;9.27;1.50;;;;;;;12.52;72.09;102689.13;5013100;28;20037;-74
2023/02/26 02:45:43;;;;;;;10.57;1.55;;;;;;;12.32;69.61;102687.25;5005243;28;20026;-79
2023/02/26 02:48:27;;;;;;;10.00;2.03;;;;;;;12.57;67.20;102700.09;5013324;28;20108;-86
2023/02/26 02:51:21;;;;;;;5.88;1.65;;;;;;;12.64;65.94;102695.13;5012880;28;20053;-86
2023/02/26 02:53:56;;;;;;;7.55;2.47;;;;;;;12.64;66.33;102704.19;5013492;28;20041;-86
2023/02/26 02:56:31;;;;;;;10.07;2.75;;;;;;;12.89;62.29;102710.69;4997747;28;20036;-85
2023/02/26 02:59:09;;;;;;;5.32;2.00;;;;;;;13.04;57.39;102699.63;5013394;28;20349;-86
2023/02/26 03:01:38;;;;;;;5.68;1.92;;;;;;;13.00;56.37;102709.53;5013123;28;20034;-84
2023/02/26 03:04:14;;;;;;;7.50;1.30;;;;;;;12.76;59.86;102707.41;5013014;28;20044;-86
2023/02/26 03:06:40;;;;;;;8.07;1.25;;;;;;;12.80;62.13;102704.13;5012992;28;20476;-75
2023/02/26 03:09:09;;;;;;;6.45;1.80;;;;;;;12.96;60.76;102708.44;5013023;28;20105;-80
2023/02/26 03:11:36;;;;;;;7.22;1.35;;;;;;;12.95;60.87;102704.88;5013019;28;20057;-83
2023/02/26 03:14:03;;;;;;;7.90;1.83;;;;;;;12.65;61.83;102699.53;5012751;28;20411;-78
2023/02/26 03:16:39;;;;;;;9.20;2.22;;;;;;;12.73;62.52;102696.19;5012893;28;20033;-85
2023/02/26 03:19:21;;;;;;;5.00;1.77;;;;;;;12.61;59.65;102696.50;5013288;28;20451;-84
2023/02/26 03:22:13;;;;;;;4.93;1.42;;;;;;;12.78;55.70;102701.69;5012849;28;20030;-84
2023/02/26 03:24:56;;;;;;;3.92;1.55;;;;;;;12.57;54.44;102703.66;5012618;28;20034;-84
2023/02/26 03:27:30;;;;;;;12.55;2.33;;;;;;;12.40;56.49;102711.38;5011884;28;20124;-80
2023/02/26 03:30:01;;;;;;;5.05;1.33;;;;;;;12.85;56.89;102707.69;5012921;28;20041;-76
2023/02/26 03:32:58;;;;;;;5.57;1.70;;;;;;;12.99;57.43;102703.22;4995304;28;20030;-73
2023/02/26 03:35:34;;;;;;;14.98;2.13;;;;;;;12.87;59.50;102707.41;5012546;28;20124;-84
2023/02/26 03:38:04;;;;;;;7.70;1.58;;;;;;;12.90;59.67;102712.31;5012793;28;20049;-69
2023/02/26 03:40:44;;;;;;;8.63;1.45;;;;;;;12.88;59.38;102709.03;5012461;28;20075;-68
2023/02/26 03:43:15;;;;;;;;;;;;;;;12.71;59.87;102704.72;5012696;28;20038;-71
2023/02/26 03:45:45;;;;;;;11.98;2.10;;;;;;;12.82;59.07;102707.41;5012280;28;20002;-68
2023/02/26 03:48:14;;;;;;;4.80;1.55;;;;;;;13.01;57.83;102694.72;5012517;28;20145;-84
2023/02/26 03:50:50;;;;;;;6.28;1.45;;;;;;;12.76;59.04;102712.91;5012049;28;20512;-78
2023/02/26 03:53:24;;;;;;;10.93;2.25;;;;;;;12.80;60.28;102713.19;5012585;28;20022;-81
2023/02/26 03:55:56;;;;;;;5.47;1.88;;;;;;;12.49;60.18;102713.28;5012438;28;20389;-71
2023/02/26 03:58:22;;;;;;;10.73;2.17;;;;;;;12.82;59.46;102713.72;5012484;28;20026;-84
2023/02/26 04:00:56;;;;;;;8.57;1.80;;;;;;;12.85;57.84;102721.41;5012439;28;20153;-67
2023/02/26 04:03:25;;;;;;;5.95;1.70;;;;;;;12.80;57.64;102724.16;5012091;28;20476;-75
2023/02/26 04:05:52;;;;;;;5.78;2.38;;;;;;;12.54;58.49;102734.38;5012408;28;20033;-69
2023/02/26 04:08:20;;;;;;;4.30;1.60;;;;;;;12.94;56.84;102738.09;5012155;28;20374;-67
2023/02/26 04:10:57;;;;;;;6.38;1.70;;;;;;;12.92;56.49;102732.06;5012070;28;20080;-76
2023/02/26 04:13:23;;;;;;;7.53;2.40;;;;;;;12.74;55.85;102730.75;5012175;28;20033;-76
2023/02/26 04:15:49;;;;;;;5.55;1.60;;;;;;;12.87;56.36;102735.66;5011907;28;20025;-67
2023/02/26 04:18:14;;;;;;;5.32;1.48;;;;;;;12.62;57.42;102739.31;5011811;28;20033;-69
2023/02/26 04:20:40;;;;;;;6.03;1.73;;;;;;;12.65;58.21;102741.47;5011847;28;20022;-67
2023/02/26 04:23:06;;;;;;;6.03;1.50;;;;;;;12.84;56.79;102740.88;5011833;28;20048;-72
2023/02/26 04:25:31;;;;;;;5.45;1.27;;;;;;;13.13;55.45;102739.09;5009337;28;20124;-68
2023/02/26 04:27:57;;;;;;;6.18;1.80;;;;;;;13.01;55.38;102744.94;5015103;28;20105;-73
2023/02/26 04:30:22;;;;;;;10.43;1.50;;;;;;;12.85;55.57;102753.50;5015078;28;20547;-68
2023/02/26 04:32:48;;;;;;;11.25;1.50;;;;;;;13.09;54.60;102754.50;5015209;28;20029;-68
2023/02/26 04:35:14;;;;;;;7.07;1.80;;;;;;;13.07;55.13;102751.19;4997747;28;20054;-74
2023/02/26 04:37:39;;;;;;;8.93;2.08;;;;;;;13.22;54.03;102748.41;5015436;28;20531;-68
2023/02/26 04:40:06;;;;;;;5.63;1.67;;;;;;;13.17;53.08;102751.19;5015388;28;20110;-69
2023/02/26 04:42:31;;;;;;;6.45;1.25;;;;;;;13.06;53.09;102757.78;4983205;28;20503;-75
2023/02/26 04:44:57;;;;;;;8.85;1.73;;;;;;;13.04;52.88;102751.78;5015528;28;20018;-76
2023/02/26 04:47:22;;;;;;;7.25;1.42;;;;;;;13.05;53.49;102756.97;5014942;28;20065;-77
2023/02/26 04:49:48;;;;;;;11.07;2.35;;;;;;;13.11;53.27;102752.28;5015061;28;20548;-82
2023/02/26 04:52:14;;;;;;;8.13;1.40;;;;;;;12.72;53.80;102758.47;5014774;28;20026;-67
2023/02/26 04:54:40;;;;;;;5.40;1.52;;;;;;;12.47;55.94;102753.88;5014701;28;20038;-75
2023/02/26 04:57:06;;;;;;;5.70;1.42;;;;;;;12.49;56.71;102753.59;4997401;28;20045;-84
2023/02/26 04:59:31;;;;;;;4.88;1.50;;;;;;;12.93;55.97;102766.66;5015401;28;20038;-82
2023/02/26 05:01:57;;;;;;;6.20;2.03;;;;;;;12.97;55.31;102762.22;4997463;28;20038;-84
2023/02/26 05:04:23;;;;;;;6.25;1.40;;;;;;;12.91;56.95;102769.66;4997317;28;20042;-84
2023/02/26 05:06:48;;;;;;;37.80;4.38;;;;;;;12.73;58.40;102768.34;5015188;28;20113;-71
2023/02/26 05:09:14;;;;;;;7.85;2.15;;;;;;;12.83;58.38;102769.41;5015183;28;20109;-79
2023/02/26 05:11:39;;;;;;;6.03;1.52;;;;;;;12.72;57.59;102772.19;5014459;28;20033;-70
2023/02/26 05:14:05;;;;;;;6.18;1.73;;;;;;;12.57;55.91;102780.44;5014820;28;20034;-83
2023/02/26 05:16:31;;;;;;;4.40;1.45;;;;;;;12.74;54.86;102775.47;5014802;28;20083;-68
2023/02/26 05:18:56;;;;;;;7.20;1.88;;;;;;;12.89;53.47;102784.75;5014961;28;20123;-72
2023/02/26 05:21:22;;;;;;;2.47;1.02;;;;;;;13.01;51.69;102771.56;5014127;28;20036;-68
2023/02/26 05:23:48;;;;;;;5.22;1.25;;;;;;;13.03;50.85;102783.88;5014448;28;20034;-69
2023/02/26 05:26:13;;;;;;;5.85;1.50;;;;;;;13.08;50.69;102793.22;5014330;28;20054;-84
2023/02/26 05:28:39;;;;;;;5.53;1.02;;;;;;;12.58;53.53;102792.22;5014806;28;20026;-78
2023/02/26 05:31:05;;;;;;;4.93;1.25;;;;;;;12.70;53.60;102793.59;5014574;28;20497;-74
2023/02/26 05:33:31;;;;;;;2.50;1.08;;;;;;;12.64;54.72;102791.94;5014313;28;20030;-84
2023/02/26 05:35:57;;;;;;;5.93;1.25;;;;;;;12.55;55.47;102790.88;5014730;28;20021;-84
2023/02/26 05:38:22;;;;;;;12.77;2.22;;;;;;;12.59;56.45;102782.91;4996828;28;20033;-84
2023/02/26 05:40:48;;;;;;;4.57;1.52;;;;;;;12.68;57.24;102795.78;5014488;28;20034;-84
2023/02/26 05:43:14;;;;;;;3.28;1.20;;;;;;;12.45;57.94;102796.34;5014354;28;20486;-82
2023/02/26 05:45:40;;;;;;;5.40;1.25;;;;;;;12.71;57.06;102797.16;5014261;28;20032;-83
2023/02/26 05:48:06;;;;;;;6.50;1.35;;;;;;;12.81;56.55;102807.28;5014401;28;20030;-83
2023/02/26 05:50:31;;;;;;;6.90;1.38;;;;;;;12.56;56.85;102817.19;5013658;28;20050;-79
2023/02/26 05:52:57;;;;;;;3.58;0.93;;;;;;;12.45;56.89;102813.63;4996960;28;20069;-84
2023/02/26 05:55:23;;;;;;;7.30;1.33;;;;;;;12.88;55.24;102807.81;5014065;28;20108;-84
2023/02/26 05:57:49;;;;;;;11.82;2.25;;;;;;;12.59;56.32;102811.16;5014157;28;20026;-78
2023/02/26 06:00:15;;;;;;;6.47;1.98;;;;;;;12.58;56.39;102814.16;5014109;28;20029;-80
2023/02/26 06:02:41;;;;;;;3.58;1.80;;;;;;;12.64;55.98;102813.91;5013830;28;20041;-84
2023/02/26 06:05:08;;;;;;;4.53;1.40;;;;;;;12.73;55.16;102817.72;5013884;28;20026;-82
2023/02/26 06:07:33;;;;;;;7.53;2.10;;;;;;;12.85;54.84;102831.16;5014047;28;20507;-84
2023/02/26 06:10:00;;;;;;;10.27;1.70;;;;;;;12.75;55.81;102828.41;5014203;28;20034;-83
2023/02/26 06:12:25;;;;;;;9.45;1.35;;;;;;;12.78;55.75;102836.91;5013794;28;20132;-83
2023/02/26 06:14:51;;;;;;;12.82;2.30;;;;;;;12.61;56.26;102825.41;5013645;28;20073;-84
2023/02/26 06:17:17;;;;;;;13.85;2.42;;;;;;;12.61;57.16;102830.88;5013659;28;20484;-83
2023/02/26 06:19:43;;;;;;;8.45;1.55;;;;;;;12.56;58.40;102825.44;5013774;28;20035;-83
2023/02/26 06:22:09;;;;;;;5.75;1.25;;;;;;;12.39;59.13;102822.13;5013538;28;20030;-83
2023/02/26 06:24:34;;;;;;;9.65;1.50;;;;;;;12.13;60.38;102826.78;5013375;28;20030;-83
2023/02/26 06:27:00;;;;;;;6.00;1.30;;;;;;;12.56;57.79;102830.09;5013514;28;20036;-83
2023/02/26 06:29:26;;;;;;;8.60;1.92;;;;;;;12.57;58.16;102835.28;5013631;28;20029;-82
2023/02/26 06:31:51;;;;;;;3.50;1.20;;;;;;;12.55;58.21;102839.41;5013159;28;20113;-84
2023/02/26 06:34:17;;;;;;;4.55;1.65;;;;;;;12.48;58.58;102839.69;5013602;28;20028;-83
2023/02/26 06:36:43;;;;;;;7.35;1.40;;;;;;;12.57;58.40;102851.75;5013450;28;20084;-83
2023/02/26 06:39:08;;;;;;;8.88;1.60;;;;;;;12.26;58.85;102852.84;5013472;28;20550;-83
2023/02/26 06:41:34;;;;;;;7.57;1.52;;;;;;;12.60;56.93;102853.09;5013424;28;20017;-79
2023/02/26 06:44:00;;;;;;;7.25;1.70;;;;;;;12.47;58.69;102851.75;5013362;28;20376;-82
2023/02/26 06:46:25;;;;;;;10.23;1.60;;;;;;;12.75;56.03;102853.09;5013111;28;20037;-74
2023/02/26 06:48:51;;;;;;;5.03;1.38;;;;;;;12.88;56.01;102852.53;5012815;28;20041;-68
2023/02/26 06:51:17;;;;;;;9.30;2.80;;;;;;;12.74;55.62;102855.00;5012514;28;20085;-84
2023/02/26 06:53:42;;;;;;;8.18;2.03;;;;;;;12.81;53.76;102857.47;5013212;28;20384;-83
2023/02/26 06:56:08;;;;;;;10.38;2.20;;;;;;;12.72;52.96;102857.22;5012606;28;20503;-73
2023/02/26 06:58:33;;;;;;;10.20;2.58;;;;;;;12.57;55.49;102861.91;4995511;28;20052;-83
2023/02/26 07:00:59;;;;;;;3.97;1.60;;;;;;;12.86;55.42;102865.72;5012805;28;20034;-81
2023/02/26 07:03:25;;;;;;;6.35;2.20;;;;;;;12.30;58.08;102862.97;5012981;28;20091;-83
2023/02/26 07:05:51;;;;;;;9.13;1.65;;;;;;;12.75;57.19;102869.56;5012317;28;20034;-73
2023/02/26 07:08:16;;;;;;;5.65;1.60;;;;;;;12.81;56.93;102878.59;5012940;28;20025;-69
2023/02/26 07:10:46;;;;;;;8.10;1.65;;;;;;;12.55;58.01;102886.03;5012738;28;20022;-83
2023/02/26 07:13:12;;;;;;;4.82;1.40;;;;;;;12.53;57.80;102888.22;5013054;28;20034;-81
2023/02/26 07:15:37;;;;;;;9.32;1.60;;;;;;;12.81;56.77;102901.38;5012926;28;20113;-68
2023/02/26 07:18:03;;;;;;;7.38;2.13;;;;;;;12.70;58.33;102897.00;5012855;28;20472;-82
2023/02/26 07:20:29;;;;;;;9.30;1.95;;;;;;;12.96;57.62;102901.34;5012479;28;20113;-83
2023/02/26 07:22:54;;;;;;;6.13;1.75;;;;;;;12.49;59.29;102899.72;5012734;28;20034;-83
2023/02/26 07:25:20;;;;;;;9.38;2.60;;;;;;;12.73;59.99;102894.53;5012536;28;20111;-83
2023/02/26 07:27:46;;;;;;;12.95;2.00;;;;;;;12.72;62.08;102909.34;5012884;28;20604;-84
2023/02/26 07:30:12;;;;;;;16.35;2.15;;;;;;;12.38;66.48;102898.06;5012747;28;20031;-69
2023/02/26 07:32:38;;;;;;;7.93;1.60;;;;;;;12.54;63.81;102918.09;5012792;28;20030;-78
2023/02/26 07:35:04;;;;;;;12.43;2.85;;;;;;;12.66;63.77;102915.91;5012389;28;20033;-79
2023/02/26 07:37:30;;;;;;;10.18;1.90;;;;;;;12.73;62.37;102924.69;5012659;28;20026;-84
2023/02/26 07:39:55;;;;;;;7.15;1.60;;;;;;;12.54;63.74;102920.00;5012628;28;20025;-68
2023/02/26 07:42:21;;;;;;;8.15;1.95;;;;;;;12.51;65.92;102924.13;5012658;28;20034;-69
2023/02/26 07:44:47;;;;;;;12.10;2.53;;;;;;;12.67;63.97;102920.28;4994789;28;20045;-68
2023/02/26 07:47:13;;;;;;;7.10;1.55;;;;;;;12.30;65.13;102923.28;5012596;28;20489;-73
2023/02/26 07:49:38;;;;;;;11.10;2.72;;;;;;;12.19;64.92;102922.44;5012324;28;20057;-76
2023/02/26 07:52:06;;;;;;;8.07;1.63;;;;;;;12.38;62.49;102930.97;5011832;28;20030;-67
2023/02/26 07:54:33;;;;;;;10.93;2.22;;;;;;;12.22;61.17;102929.28;5012024;28;20045;-72
2023/02/26 07:56:59;;;;;;;12.35;2.65;;;;;;;12.62;60.62;102936.78;5012202;28;20029;-72
2023/02/26 07:59:24;;;;;;;7.32;1.40;;;;;;;12.71;60.62;102935.13;5011986;28;20476;-68
2023/02/26 08:01:50;;;;;;;3.92;1.45;;;;;;;12.73;59.01;102945.81;5012881;28;20136;-69
2023/02/26 08:04:15;;;;;;;4.93;1.65;;;;;;;12.38;60.17;102955.63;5015908;28;20373;-68
2023/02/26 08:06:41;;;;;;;11.15;1.88;;;;;;;12.75;60.20;102951.84;5015617;28;20121;-68
2023/02/26 08:09:07;;;;;;;9.32;2.03;;;;;;;12.81;58.73;102944.44;4996490;28;20026;-69
2023/02/26 08:11:35;;;;;;;9.70;2.50;;;;;;;12.95;59.17;102938.13;5014469;28;20026;-68
2023/02/26 08:14:02;;;;;;;12.43;2.53;;;;;;;12.74;59.55;102951.03;5014428;28;20018;-69
2023/02/26 08:16:27;;;;;;;10.43;2.00;;;;;;;12.74;59.66;102956.50;5014265;28;20109;-69
2023/02/26 08:18:53;;;;;;;9.43;2.35;;;;;;;12.96;58.18;102960.91;4997557;28;20116;-68
2023/02/26 08:21:18;;;;;;;8.02;2.25;;;;;;;12.81;58.73;102980.94;5015242;28;20507;-69
2023/02/26 08:23:44;;;;;;;7.15;1.65;;;;;;;13.25;56.81;102989.47;5014374;28;20121;-68
2023/02/26 08:26:12;;;;;;;7.22;1.20;;;;;;;13.09;55.46;102990.53;4997556;28;20037;-69
2023/02/26 08:28:38;;;;;;;6.45;1.95;;;;;;;13.03;55.54;102986.97;5015262;28;20167;-69
2023/02/26 08:31:05;;;;;;;8.02;1.75;;;;;;;12.82;56.03;102987.25;5015124;28;20434;-69
2023/02/26 08:33:31;;;;;;;9.68;1.75;;;;;;;13.01;55.55;102991.09;5015266;28;20057;-69
2023/02/26 08:35:57;;;;;;;11.95;1.85;;;;;;;12.90;56.14;102992.19;4997682;28;20056;-68
2023/02/26 08:38:25;;;;;;;8.13;2.03;;;;;;;12.93;57.36;102999.88;5014763;28;20037;-68
2023/02/26 08:40:51;;;;;;;10.23;2.67;;;;;;;13.06;56.93;103004.81;4996814;28;20034;-67
2023/02/26 08:43:18;;;;;;;10.90;1.75;;;;;;;13.27;55.96;103022.94;5014559;28;20121;-83
2023/02/26 08:45:44;;;;;;;9.88;1.50;;;;;;;13.44;55.80;103024.56;5014550;28;20065;-68
2023/02/26 08:48:10;;;;;;;6.53;1.90;;;;;;;13.37;55.99;103030.34;4997218;28;20026;-69
2023/02/26 08:50:35;;;;;;;9.65;2.92;;;;;;;13.54;56.29;103028.16;5014889;28;20058;-69
2023/02/26 08:53:01;;;;;;;11.50;2.80;;;;;;;13.49;55.63;103021.81;5014701;28;20436;-72
2023/02/26 08:55:27;;;;;;;13.57;2.10;;;;;;;13.37;56.71;103018.53;5014669;28;20399;-69
2023/02/26 08:57:52;;;;;;;14.32;2.72;;;;;;;13.33;58.94;103007.31;5015315;28;20388;-76
2023/02/26 09:00:19;;;;;;;8.35;2.38;;;;;;;13.32;57.73;103001.00;5015065;28;20030;-70
2023/02/26 09:02:45;;;;;;;13.93;2.25;;;;;;;13.37;56.72;103007.56;5014475;28;20036;-78
2023/02/26 09:05:11;;;;;;;8.75;1.67;;;;;;;13.50;56.07;103023.47;5014873;28;20018;-85
2023/02/26 09:07:37;;;;;;;9.85;2.78;;;;;;;13.62;55.52;103039.66;5014862;28;20063;-68
2023/02/26 09:10:04;;;;;;;9.95;3.08;;;;;;;13.41;55.19;103041.63;4996796;28;20033;-69
2023/02/26 09:12:29;;;;;;;10.77;2.58;;;;;;;13.75;53.88;103048.16;5014162;28;20026;-76
2023/02/26 09:14:57;;;;;;;13.80;2.40;;;;;;;13.63;53.69;103050.38;5013604;28;20384;-68
2023/02/26 09:17:24;;;;;;;8.95;2.45;;;;;;;13.52;54.63;103035.00;5014142;28;20033;-68
2023/02/26 09:19:49;;;;;;;10.00;2.00;;;;;;;13.27;56.51;103031.19;5014903;28;20029;-82
2023/02/26 09:22:15;;;;;;;9.05;2.65;;;;;;;13.31;56.99;103032.28;4997017;28;20384;-82
2023/02/26 09:24:41;;;;;;;6.75;1.30;;;;;;;13.22;55.92;103033.91;5014560;28;20041;-84
2023/02/26 09:27:06;;;;;;;9.90;2.38;;;;;;;13.11;58.57;103042.41;5014282;28;20025;-84
2023/02/26 09:29:32;;;;;;;7.55;2.63;;;;;;;13.29;58.41;103063.84;5014392;28;20025;-79
2023/02/26 09:31:58;;;;;;;13.02;2.33;;;;;;;13.36;58.31;103060.84;5011873;28;20419;-69
2023/02/26 09:34:24;;;;;;;8.48;2.20;;;;;;;13.43;58.42;103067.69;5014322;28;20023;-68
2023/02/26 09:36:49;;;;;;;6.90;1.83;;;;;;;13.27;59.32;103064.13;5014452;28;20029;-70
2023/02/26 09:39:15;;;;;;;15.35;2.25;;;;;;;13.27;60.36;103066.06;5014223;28;20487;-73
2023/02/26 09:41:47;;;;;;;11.05;2.22;;;;;;;13.21;58.52;103056.16;5012427;28;20161;-83
2023/02/26 09:44:18;;;;;;;8.10;1.75;;;;;;;13.19;58.28;103053.66;5011964;28;20498;-68
2023/02/26 09:46:58;;;;;;;7.78;2.10;;;;;;;13.14;59.98;103061.88;5012050;28;20446;-68
2023/02/26 09:50:00;;;;;;;8.48;1.45;;;;;;;13.21;63.43;103064.41;5011667;28;20030;-68
2023/02/26 09:52:31;;;;;;;11.48;1.95;;;;;;;13.50;63.57;103078.41;5010314;28;20522;-68
2023/02/26 09:55:23;;;;;;;7.43;1.83;;;;;;;13.28;65.40;103078.69;5011902;28;20056;-68
2023/02/26 09:57:54;;;;;;;7.65;2.13;;;;;;;13.39;66.68;103087.75;5000767;28;20041;-68
2023/02/26 10:00:36;;;;;;;11.13;2.30;;;;;;;13.14;70.61;103085.78;5008254;28;20084;-78
2023/02/26 10:03:38;;;;;;;7.10;2.33;;;;;;;13.21;75.28;103083.63;5009711;28;20463;-69
2023/02/26 10:06:33;;;;;;;14.15;2.65;;;;;;;13.05;73.91;103088.25;5011196;28;20034;-76
2023/02/26 10:09:39;;;;;;;10.32;1.90;;;;;;;13.01;72.34;103100.88;5010486;28;20471;-82
2023/02/26 10:12:20;;;;;;;11.52;2.35;;;;;;;13.41;67.56;103116.59;5011258;28;20053;-82
2023/02/26 10:15:00;;;;;;;10.85;2.72;;;;;;;13.64;68.22;103114.38;5012650;28;20033;-71
2023/02/26 10:18:01;;;;;;;16.25;2.83;;;;;;;13.66;66.91;103114.91;5012892;28;20092;-84
2023/02/26 10:20:43;;;;;;;11.90;1.95;;;;;;;13.57;68.10;103128.38;4977992;28;20050;-68
2023/02/26 10:23:25;;;;;;;10.57;2.05;;;;;;;13.43;72.84;103130.03;5009973;28;20639;-68
2023/02/26 10:26:13;;;;;;;9.35;1.58;;;;;;;13.36;76.18;103127.56;5008009;28;20036;-68
2023/02/26 10:28:58;;;;;;;10.57;2.83;;;;;;;13.42;76.50;103131.13;5009687;28;20061;-68
2023/02/26 10:31:31;;;;;;;7.55;2.22;;;;;;;13.47;71.20;103137.47;5008510;28;20026;-68
2023/02/26 10:34:18;;;;;;;8.82;2.80;;;;;;;13.66;67.47;103137.72;5011893;28;20048;-68
2023/02/26 10:36:57;;;;;;;8.95;2.78;;;;;;;13.64;66.27;103137.19;5011458;28;20479;-68
2023/02/26 10:39:42;;;;;;;17.83;3.60;;;;;;;13.77;68.70;103149.53;5010837;28;20038;-70
2023/02/26 10:42:36;;;;;;;14.48;3.88;;;;;;;14.27;65.18;103140.34;5006927;28;20117;-78
2023/02/26 10:45:25;;;;;;;10.40;2.45;;;;;;;14.38;67.11;103147.47;5002760;28;20116;-73
2023/02/26 10:48:21;;;;;;;17.23;3.75;;;;;;;14.39;67.04;103140.06;5008717;28;20042;-69
2023/02/26 10:50:54;;;;;;;8.23;1.90;;;;;;;14.25;69.76;103139.81;5010622;28;20038;-69
2023/02/26 10:53:21;;;;;;;15.15;2.63;;;;;;;14.11;73.22;103147.00;5011333;28;20395;-68
2023/02/26 10:55:54;;;;;;;9.57;3.13;;;;;;;14.41;71.46;103151.59;5011036;28;20477;-70
2023/02/26 10:58:24;;;;;;;10.60;3.30;;;;;;;14.38;67.72;103144.72;5011615;28;20045;-72
2023/02/26 11:00:53;;;;;;;11.18;2.47;;;;;;;14.35;63.48;103137.03;5010711;28;20029;-73
2023/02/26 11:03:36;;;;;;;12.47;3.00;;;;;;;14.27;67.22;103139.53;5010621;28;20455;-81
2023/02/26 11:06:04;;;;;;;16.85;2.75;;;;;;;14.31;69.64;103144.19;5011043;28;20259;-68
2023/02/26 11:08:45;;;;;;;17.33;4.15;;;;;;;14.43;69.13;103138.38;5010842;28;20109;-79
2023/02/26 11:11:34;;;;;;;7.90;2.65;;;;;;;14.09;69.19;103149.22;5011000;28;20100;-68
2023/02/26 11:14:01;;;;;;;12.23;3.08;;;;;;;14.38;65.44;103164.00;5010711;28;20021;-80
2023/02/26 11:16:27;;;;;;;12.32;2.75;;;;;;;14.29;64.20;103156.59;5010850;28;20130;-68
2023/02/26 11:18:54;;;;;;;16.83;4.50;;;;;;;14.41;61.78;103157.09;5010461;28;20022;-67
2023/02/26 11:21:29;;;;;;;12.77;3.63;;;;;;;14.88;61.11;103155.81;5010565;28;20076;-69
2023/02/26 11:24:04;;;;;;;12.80;3.53;;;;;;;14.69;63.09;103152.91;5008129;28;20057;-68
2023/02/26 11:26:37;;;;;;;16.02;3.70;;;;;;;14.65;60.96;103166.38;5010247;28;20036;-69
2023/02/26 11:29:04;;;;;;;6.30;2.72;;;;;;;14.61;62.11;103158.97;5010550;28;20046;-81
2023/02/26 11:31:31;;;;;;;17.42;3.10;;;;;;;14.52;61.55;103157.94;5010998;28;20060;-78
2023/02/26 11:34:08;;;;;;;9.73;2.38;;;;;;;14.44;62.58;103160.13;4993130;28;20026;-81
2023/02/26 11:36:38;;;;;;;10.00;2.40;;;;;;;14.75;59.51;103148.19;5012642;28;20025;-69
2023/02/26 11:39:18;;;;;;;9.48;2.40;;;;;;;14.65;61.11;103160.88;5014583;28;20040;-71